This is the latest recevied weather packets stored in our database for station/object N6RDS. If no packets are shown the sender has not sent any weather packets the latest 10 day(s).
| Time | Temp. | Humidity | Pressure | Rain* | Wind** | Luminosity | Snow |
|---|---|---|---|---|---|---|---|
| 1778083377 | 12.78° C | 44% | 1024.2 hPa | 0 mm | - | 482 W/m² | - |
| 1778083076 | 12.78° C | 46% | 1024.2 hPa | 0 mm | - | 466 W/m² | - |
| 1778082771 | 12.22° C | 47% | 1024.2 hPa | 0 mm | - | 447 W/m² | - |
| 1778081644 | 11.11° C | 49% | 1024.3 hPa | 0 mm | - | 393 W/m² | - |
| 1778081341 | 10.56° C | 50% | 1024.4 hPa | 0 mm | - | 377 W/m² | - |
| 1778081038 | 10.56° C | 50% | 1024.3 hPa | 0 mm | - | 360 W/m² | - |
| 1778080737 | 10° C | 51% | 1024.2 hPa | 0 mm | - | 345 W/m² | - |
| 1778080433 | 10° C | 50% | 1024.2 hPa | 0 mm | - | 325 W/m² | - |
| 1778080130 | 10° C | 53% | 1024.2 hPa | 0 mm | - | 313 W/m² | - |
| 1778079827 | 10° C | 52% | 1024.2 hPa | 0 mm | - | 292 W/m² | - |
| 1778079523 | 9.44° C | 53% | 1024 hPa | 0 mm | - | 261 W/m² | - |
| 1778079220 | 8.89° C | 57% | 1023.9 hPa | 0 mm | - | 219 W/m² | - |
| 1778078918 | 8.89° C | 58% | 1023.9 hPa | 0 mm | - | 186 W/m² | - |
| 1778078614 | 8.33° C | 56% | 1024.3 hPa | 0 mm | - | 169 W/m² | - |
| 1778078313 | 8.33° C | 57% | 1024.2 hPa | 0 mm | - | 156 W/m² | - |
| 1778078009 | 8.33° C | 62% | 1024.3 hPa | 0 mm | - | 145 W/m² | - |
| 1778077707 | 7.78° C | 64% | 1024.4 hPa | 0 mm | - | 135 W/m² | - |
| 1778077405 | 7.22° C | 67% | 1024.3 hPa | 0 mm | - | 125 W/m² | - |
| 1778077103 | 6.67° C | 68% | 1024.2 hPa | 0 mm | - | 116 W/m² | - |
| 1778076801 | 5.56° C | 73% | 1023.9 hPa | 0 mm | - | 108 W/m² | - |
| 1778076499 | 5° C | 77% | 1023.9 hPa | 0 mm | - | 100 W/m² | - |
| 1778076195 | 4.44° C | 78% | 1023.9 hPa | 0 mm | - | 81 W/m² | - |
| 1778075893 | 2.78° C | 85% | 1023.9 hPa | 0 mm | - | 78 W/m² | - |
| 1778075588 | 2.22° C | 90% | 1024.2 hPa | 0 mm | - | 97 W/m² | - |
| 1778075286 | 1.11° C | 94% | 1024 hPa | 0 mm | - | 87 W/m² | - |
* Rain latest hour (hover to see other rain measurements)
** Current wind speed in m/s (hover to see current wind gust speed)